Nearby METAR Reports

METAR is the scheduled surface weather observation taken hourly at civil and military airport locations.

METAR is an acronym from the French language and roughly translates as Aviation Routine Weather Report.

 

EGPL - Benbecula Island, United Kingdom
Distance from station: WNW 41mi, 66km
Updated: 22/07/2018 22:50
Overcast
Overcast
 Wind from WSW
Wind: WSW 3 mph , 6 km/h
Temperature: 14°C
Dew Point: 14°C
Humidity: 100%
Barometer: 1011 hPa
Clouds: Overcast
Visibility: 6 miles , 10 km
Cloud details: Mostly cloudy 61 m
Overcast 183 m
2018/07/22 21:50 EGPL 222150Z AUTO 25003KT 9999 BKN002/// OVC006/// 14/14 Q1011
EGPU - Tiree Island, United Kingdom
Distance from station: SSW 56mi, 90km
Updated: 22/07/2018 22:50
Fog, Overcast
Fog, Overcast
 Wind from SW
Wind: SW 14 mph , 22 km/h
Temperature: 15°C
Dew Point: 15°C
Humidity: 100%
Barometer: 1012 hPa
Summary: Fog
Clouds: Overcast
Visibility: 1 mile , 1 km
Cloud details: Overcast 61 m
2018/07/22 21:50 EGPU 222150Z AUTO 22012KT 180V250 0900 FG OVC002/// 15/15 Q1012
 
EGEO - Oban Airport, United Kingdom
Distance from station: SE 65mi, 105km
Updated: 22/07/2018 16:50
NOT Current
Nearby showers, Overcast
Nearby showers, Overcast
 Wind from SW
Wind: SW 14 mph , 22 km/h
Temperature: 17°C
Dew Point: 15°C
Humidity: 88%
Barometer: 1014 hPa
Summary: Nearby Showers
Clouds: Overcast
Visibility: 6 miles , 9 km
Cloud details: Few Clouds 396 m
Partly cloudy 610 m
Overcast 823 m
2018/07/22 15:50 EGEO 221550Z 23012KT 9000 VCSH FEW013 SCT020 OVC027 17/15 Q1014
EGPO - Stornoway, United Kingdom
Distance from station: 0 66mi, 106km
Updated: 22/07/2018 22:50
Overcast
Overcast
 Wind from WSW
Wind: WSW 2 mph , 4 km/h
Temperature: 14°C
Dew Point: 13°C
Humidity: 94%
Barometer: 1011 hPa
Clouds: Overcast
Visibility: 6 miles , 10 km
Cloud details: Mostly cloudy 488 m
Mostly cloudy 792 m
Overcast 1433 m
2018/07/22 21:50 EGPO 222150Z AUTO 24002KT 9999 BKN016/// BKN026/// OVC047/// 14/13 Q1011
 
EGPE - Inverness/Dalcro, United Kingdom
Distance from station: ENE 88mi, 141km
Updated: 22/07/2018 22:50
Clear
Clear
 Wind from SW
Wind: SW 9 mph , 15 km/h
Temperature: 17°C
Dew Point: 15°C
Humidity: 88%
Barometer: 1011 hPa
Clouds: Clear
Visibility: 6 miles , 10 km
2018/07/22 21:50 EGPE 222150Z AUTO 23008KT 9999 NCD 17/15 Q1011
EGQA - Tain Range (saws, United Kingdom
Distance from station: ENE 97mi, 156km
Updated: 20/07/2018 10:50
NOT Current
Rain, Overcast
Rain, Overcast
 Wind from S
Wind: S 7 mph , 11 km/h
Summary: Rain
Clouds: Overcast
Visibility: 5 miles , 8 km
Cloud details: Partly cloudy 274 m
Overcast 762 m
2018/07/20 09:50 EGQA 200950Z 19006KT 8000 RA SCT009 OVC025 14/// Q1011 GRN
 
EGQK - Kinloss Raf, United Kingdom
Distance from station: ENE 107mi, 171km
Updated: 22/07/2018 22:50
Mostly cloudy
Mostly cloudy
 Wind from E
Wind: E 3 mph , 6 km/h
Temperature: 16°C
Dew Point: 15°C
Humidity: 94%
Barometer: 1011 hPa
Clouds: Mostly cloudy
Visibility: 6 miles , 10 km
Cloud details: Mostly cloudy 1524 m
2018/07/22 21:50 EGQK 222150Z AUTO 08003KT 9999 BKN050/// 16/15 Q1011
EGPI - Islay/Port Ellen, United Kingdom
Distance from station: S 110mi, 177km
Updated: 22/07/2018 22:50
Overcast
Overcast
 Wind from ESE
Wind: ESE 2 mph , 4 km/h
Temperature: 16°C
Dew Point: 15°C
Humidity: 94%
Barometer: 1014 hPa
Clouds: Overcast
Visibility: 6 miles , 10 km
Cloud details: Few Clouds 244 m
Overcast 975 m
2018/07/22 21:50 EGPI 222150Z AUTO 11002KT 9999 // FEW008/// OVC032/// 16/15 Q1014
 
EGQS - Lossiemouth Raf, United Kingdom
Distance from station: ENE 117mi, 188km
Updated: 22/07/2018 22:50
Partly cloudy
Partly cloudy
 Wind from E
Wind: E 2 mph , 4 km/h
Temperature: 17°C
Dew Point: 15°C
Humidity: 88%
Barometer: 1011 hPa
Clouds: Partly cloudy
Visibility: 6 miles , 10 km
Cloud details: Few Clouds 610 m
Partly cloudy 914 m
2018/07/22 21:50 EGQS 222150Z 10002KT 9999 FEW020 SCT030 17/15 Q1011 BLU
EGPF - Glasgow Airport, United Kingdom
Distance from station: SE 121mi, 195km
Updated: 22/07/2018 23:20
Overcast
Overcast
 Wind from W
Wind: W 6 mph , 9 km/h
Temperature: 18°C
Dew Point: 17°C
Humidity: 94%
Barometer: 1014 hPa
Clouds: Overcast
Visibility: 6 miles , 10 km
Cloud details: Mostly cloudy 305 m
Mostly cloudy 457 m
Overcast 610 m
2018/07/22 22:20 EGPF 222220Z AUTO 26005KT 9999 BKN010 BKN015 OVC020 18/17 Q1014
 
EGEC - Campbeltown, United Kingdom
Distance from station: SSE 129mi, 207km
Updated: 22/07/2018 18:20
NOT Current
Mostly cloudy
Mostly cloudy
 Wind from N
Wind: N 2 mph , 4 km/h
Temperature: 19°C
Dew Point: 16°C
Humidity: 83%
Barometer: 1013 hPa
Clouds: Mostly cloudy
Visibility: 6 miles , 10 km
Cloud details: Mostly cloudy 366 m
Mostly cloudy 640 m
2018/07/22 17:20 EGEC 221720Z 36002KT 9999 BKN012 BKN021 19/16 Q1013
EGPN - Dundee/Riverside, United Kingdom
Distance from station: ESE 137mi, 221km
Updated: 22/07/2018 21:50
NOT Current
Few Clouds
Few Clouds
 Wind from W
Wind: W 13 mph , 20 km/h
Temperature: 20°C
Dew Point: 17°C
Humidity: 83%
Barometer: 1013 hPa
Clouds: Few Clouds
Visibility: 6 miles , 10 km
Cloud details: Few Clouds 1158 m
2018/07/22 20:50 EGPN 222050Z 27011KT 9999 FEW038 20/17 Q1013
 
EGPK - Prestwick(Civ/Na, United Kingdom
Distance from station: SSE 139mi, 224km
Updated: 22/07/2018 23:20
Mostly cloudy
Mostly cloudy
 Wind from calm
Wind: Calm
Temperature: 18°C
Dew Point: 16°C
Humidity: 88%
Barometer: 1014 hPa
Clouds: Mostly cloudy
Visibility: 6 miles , 10 km
Cloud details: Partly cloudy 549 m
Mostly cloudy 914 m
2018/07/22 22:20 EGPK 222220Z 00000KT 9999 SCT018 BKN030 18/16 Q1014
EGQL - Leuchars Raf, United Kingdom
Distance from station: ESE 145mi, 233km
Updated: 22/07/2018 22:50
Mostly cloudy
Mostly cloudy
 Wind from WSW
Wind: WSW 13 mph , 20 km/h
Temperature: 19°C
Dew Point: 16°C
Humidity: 83%
Barometer: 1012 hPa
Clouds: Mostly cloudy
Visibility: 6 miles , 10 km
Cloud details: Few Clouds 1158 m
Mostly cloudy 3353 m
2018/07/22 21:50 EGQL 222150Z 25011KT 9999 FEW038 BKN110 19/16 Q1012 BLU
 
EGPH - Edinburgh Airpor, United Kingdom
Distance from station: SE 145mi, 234km
Updated: 22/07/2018 23:20
Mostly cloudy
Mostly cloudy
 Wind from SW
Wind: SW 7 mph , 11 km/h
Temperature: 18°C
Dew Point: 17°C
Humidity: 94%
Barometer: 1013 hPa
Clouds: Mostly cloudy
Visibility: 6 miles , 10 km
Cloud details: Partly cloudy 610 m
Mostly cloudy 1158 m
2018/07/22 22:20 EGPH 222220Z 22006KT 9999 SCT020 BKN038 18/17 Q1013
EGPC - Wick, United Kingdom
Distance from station: NE 146mi, 234km
Updated: 22/07/2018 22:50
Drizzle, Partly cloudy
Drizzle, Partly cloudy
 Wind from SE
Wind: SE 5 mph , 7 km/h
Temperature: 13°C
Dew Point: 13°C
Humidity: 100%
Barometer: 1012 hPa
Summary: Drizzle
Clouds: Partly cloudy
Visibility: 0 mile , 1 km
Cloud details: Partly cloudy 30 m
Partly cloudy 183 m
2018/07/22 21:50 EGPC 222150Z AUTO 14004KT 0800 DZ SCT001/// SCT006/// 13/13 Q1012

-

free counters
QR Code Twitter Scottish Weather Network UK Weather Network
Argyll House B & B

Argyll House B & B is situated in North West Skye and is the perfect base to see all that the Isle of Skye has to offer.
We are now full for 2018 - Bookings been taken for 2019.